createdAt,value
2022-08-18T00:02:13.502Z,50.58
2022-08-18T00:04:49.502Z,54.20
2022-08-18T00:07:25.927Z,51.45
2022-08-18T00:09:53.459Z,58.38
2022-08-18T00:12:29.046Z,58.20
2022-08-18T00:14:57.017Z,54.78
2022-08-18T00:17:24.830Z,52.50
2022-08-18T00:19:51.955Z,51.55
2022-08-18T00:22:21.526Z,52.30
2022-08-18T00:24:52.250Z,55.20
2022-08-18T00:27:31.493Z,51.92
2022-08-18T00:30:01.752Z,58.58
2022-08-18T00:32:41.629Z,51.17
2022-08-18T00:35:22.684Z,55.92
2022-08-18T00:37:49.926Z,44.88
2022-08-18T00:40:21.001Z,44.25
2022-08-18T00:42:53.247Z,45.50
2022-08-18T00:45:24.185Z,43.65
2022-08-18T00:47:51.757Z,40.50
2022-08-18T00:50:25.675Z,44.30
2022-08-18T00:53:07.301Z,41.88
2022-08-18T00:55:34.787Z,48.42
2022-08-18T00:58:11.929Z,48.40
2022-08-18T01:00:39.536Z,48.05
2022-08-18T01:03:12.735Z,52.75
2022-08-18T01:05:51.806Z,49.92
2022-08-18T01:08:28.511Z,52.03
2022-08-18T01:10:57.775Z,47.33
2022-08-18T01:13:30.856Z,49.83
2022-08-18T01:15:58.240Z,55.53
2022-08-18T01:18:44.597Z,46.60
2022-08-18T01:21:41.490Z,46.35
2022-08-18T01:24:10.345Z,44.03
2022-08-18T01:26:44.325Z,46.13
2022-08-18T01:29:18.811Z,47.22
2022-08-18T01:31:56.514Z,41.65
2022-08-18T01:34:26.672Z,43.22
2022-08-18T01:36:55.216Z,42.20
2022-08-18T01:41:21.868Z,44.58
2022-08-18T01:42:11.935Z,47.47
2022-08-18T01:44:41.819Z,50.40
2022-08-18T01:47:10.939Z,51.53
2022-08-18T01:49:39.232Z,57.83
2022-08-18T01:52:07.577Z,58.60
2022-08-18T01:54:34.830Z,61.50
2022-08-18T01:57:02.444Z,63.25
2022-08-18T01:59:29.857Z,64.25
2022-08-18T02:01:59.071Z,60.47
2022-08-18T02:04:36.721Z,57.63
2022-08-18T02:07:09.754Z,64.00
2022-08-18T02:09:38.841Z,63.30
2022-08-18T02:12:07.719Z,61.10
2022-08-18T02:14:36.133Z,60.97
2022-08-18T02:17:05.984Z,56.67
2022-08-18T02:19:41.039Z,61.65
2022-08-18T02:22:09.967Z,61.08
2022-08-18T02:24:37.480Z,66.38
2022-08-18T02:27:04.851Z,59.40
2022-08-18T02:29:32.179Z,67.68
2022-08-18T02:31:59.332Z,64.88
2022-08-18T02:34:26.403Z,70.65
2022-08-18T02:36:53.695Z,75.57
2022-08-18T02:39:20.995Z,74.93
2022-08-18T02:41:48.100Z,81.00
2022-08-18T02:44:15.427Z,75.43
2022-08-18T02:46:42.520Z,81.47
2022-08-18T02:49:10.024Z,79.88
2022-08-18T02:51:37.068Z,74.32
2022-08-18T02:54:09.329Z,78.72
2022-08-18T02:56:41.923Z,85.15
2022-08-18T02:59:15.756Z,77.28
2022-08-18T03:01:45.870Z,79.37
2022-08-18T03:04:28.106Z,74.43
2022-08-18T03:06:57.584Z,69.53
2022-08-18T03:09:24.804Z,61.15
2022-08-18T03:11:53.698Z,63.42
2022-08-18T03:14:21.127Z,59.03
2022-08-18T03:16:54.029Z,59.47
2022-08-18T03:19:28.474Z,53.72
2022-08-18T03:21:58.158Z,60.53
2022-08-18T03:24:28.191Z,68.43
2022-08-18T03:26:57.437Z,66.60
2022-08-18T03:29:29.500Z,62.45
2022-08-18T03:32:00.643Z,53.33
2022-08-18T03:34:27.647Z,42.20
2022-08-18T03:36:54.660Z,44.22
2022-08-18T03:39:23.800Z,45.03
2022-08-18T03:41:59.989Z,49.60
2022-08-18T03:44:33.697Z,47.58
2022-08-18T03:47:03.261Z,55.25
2022-08-18T03:49:31.805Z,58.30
2022-08-18T03:52:01.186Z,55.35
2022-08-18T03:54:29.624Z,55.83
2022-08-18T03:56:56.802Z,68.20
2022-08-18T03:59:26.026Z,72.78
2022-08-18T04:01:55.138Z,69.10
2022-08-18T04:04:25.228Z,72.28
2022-08-18T04:06:58.779Z,68.60
2022-08-18T04:09:29.198Z,65.18
2022-08-18T04:11:57.752Z,76.80
2022-08-18T04:14:32.029Z,83.80
2022-08-18T04:16:59.679Z,82.22
2022-08-18T04:19:28.004Z,86.50
2022-08-18T04:21:58.105Z,84.80
2022-08-18T04:24:28.053Z,87.10
2022-08-18T04:26:56.506Z,85.15
2022-08-18T04:29:23.910Z,81.60
2022-08-18T04:31:52.178Z,82.18
2022-08-18T04:34:23.000Z,85.53
2022-08-18T04:36:54.162Z,81.78
2022-08-18T04:39:22.333Z,82.80
2022-08-18T04:41:50.054Z,76.80
2022-08-18T04:44:19.282Z,79.88
2022-08-18T04:46:49.542Z,87.32
2022-08-18T04:49:18.683Z,71.18
2022-08-18T04:52:26.764Z,73.03
2022-08-18T04:54:58.333Z,70.22
2022-08-18T04:57:26.380Z,67.22
2022-08-18T04:59:54.422Z,77.90
2022-08-18T05:02:22.320Z,86.97
2022-08-18T05:04:49.510Z,91.18
2022-08-18T05:07:19.838Z,99.43
2022-08-18T05:09:47.330Z,91.70
2022-08-18T05:12:15.920Z,96.28
2022-08-18T05:14:44.947Z,95.85
2022-08-18T05:17:13.872Z,90.78
2022-08-18T05:19:44.291Z,95.45
2022-08-18T05:22:18.313Z,79.63
2022-08-18T05:24:45.763Z,83.60
2022-08-18T05:27:13.336Z,83.78
2022-08-18T05:29:41.706Z,89.03
2022-08-18T05:32:41.170Z,80.28
2022-08-18T05:35:07.163Z,75.00
2022-08-18T05:38:04.033Z,78.95
2022-08-18T05:40:32.108Z,82.82
2022-08-18T05:43:00.408Z,67.22
2022-08-18T05:45:28.168Z,59.38
2022-08-18T05:48:02.374Z,70.60
2022-08-18T05:50:35.056Z,66.88
2022-08-18T05:53:14.152Z,66.63
2022-08-18T05:56:12.988Z,82.00
2022-08-18T05:58:46.373Z,69.22
2022-08-18T06:01:29.104Z,75.07
2022-08-18T06:04:06.620Z,56.45
2022-08-18T06:06:36.710Z,63.55
2022-08-18T06:09:26.054Z,70.65
2022-08-18T06:11:58.490Z,73.85
2022-08-18T06:14:26.020Z,76.25
2022-08-18T06:17:01.977Z,78.75
2022-08-18T06:19:56.691Z,92.47
2022-08-18T06:22:52.173Z,102.38
2022-08-18T06:25:41.835Z,112.82
2022-08-18T06:28:15.978Z,106.55
2022-08-18T06:30:43.122Z,104.93
2022-08-18T06:33:16.563Z,97.00
2022-08-18T06:35:52.080Z,81.55
2022-08-18T06:38:40.394Z,97.90
2022-08-18T06:41:41.486Z,90.35
2022-08-18T06:44:10.205Z,99.78
2022-08-18T06:47:15.623Z,99.20
2022-08-18T06:49:46.796Z,102.45
2022-08-18T06:52:30.494Z,73.18
2022-08-18T06:55:00.585Z,106.80
2022-08-18T06:57:37.156Z,103.32
2022-08-18T07:00:17.689Z,102.88
2022-08-18T07:02:53.157Z,111.57
2022-08-18T07:05:27.428Z,111.63
2022-08-18T07:08:31.776Z,100.07
2022-08-18T07:11:14.558Z,105.05
2022-08-18T07:13:44.774Z,107.35
2022-08-18T07:16:57.947Z,107.18
2022-08-18T07:19:29.916Z,115.00
2022-08-18T07:22:06.916Z,102.88
2022-08-18T07:24:41.411Z,114.20
2022-08-18T07:27:38.386Z,102.72
2022-08-18T07:30:30.300Z,96.60
2022-08-18T07:33:19.980Z,100.05
2022-08-18T07:35:50.356Z,95.65
2022-08-18T07:38:42.179Z,90.32
2022-08-18T07:41:24.330Z,89.93
2022-08-18T07:43:54.642Z,82.32
2022-08-18T07:46:48.680Z,83.43
2022-08-18T07:49:22.467Z,82.00
2022-08-18T07:52:00.151Z,88.18
2022-08-18T07:54:51.047Z,97.28
2022-08-18T07:57:47.431Z,85.18
2022-08-18T08:00:55.289Z,83.72
2022-08-18T08:03:41.333Z,75.85
2022-08-18T08:06:17.235Z,82.95
2022-08-18T08:09:07.967Z,83.95
2022-08-18T08:11:58.526Z,77.32
2022-08-18T08:14:28.492Z,77.22
2022-08-18T08:17:04.549Z,72.32
2022-08-18T08:20:00.026Z,78.43
2022-08-18T08:22:38.630Z,76.50
2022-08-18T08:25:42.653Z,82.05
2022-08-18T08:28:20.661Z,70.13
2022-08-18T08:31:35.275Z,76.72
2022-08-18T08:35:01.816Z,78.03
2022-08-18T08:37:38.201Z,74.85
2022-08-18T08:40:14.428Z,74.05
2022-08-18T08:43:01.114Z,76.20
2022-08-18T08:45:35.555Z,68.75
2022-08-18T08:48:14.569Z,82.47
2022-08-18T08:50:50.746Z,76.35
2022-08-18T08:53:20.708Z,74.30
2022-08-18T08:56:02.205Z,80.53
2022-08-18T08:58:34.286Z,78.72
2022-08-18T09:01:02.754Z,80.38
2022-08-18T09:03:54.102Z,77.30
2022-08-18T09:06:50.166Z,74.40
2022-08-18T09:09:26.430Z,77.68
2022-08-18T09:12:16.731Z,77.03
2022-08-18T09:15:07.709Z,77.00
2022-08-18T09:18:11.053Z,82.32
2022-08-18T09:20:38.110Z,74.00
2022-08-18T09:23:14.954Z,77.63
2022-08-18T09:25:44.813Z,77.32
2022-08-18T09:28:29.970Z,81.25
2022-08-18T09:34:41.564Z,73.68
2022-08-18T09:37:24.474Z,66.85
2022-08-18T09:40:17.750Z,75.35
2022-08-18T09:42:58.280Z,63.95
2022-08-18T09:48:45.342Z,70.70
2022-08-18T09:51:41.739Z,69.50
2022-08-18T09:54:13.742Z,63.80
2022-08-18T09:57:04.196Z,60.30
2022-08-18T09:59:38.270Z,60.33
2022-08-18T10:05:17.339Z,61.13
2022-08-18T10:07:53.489Z,63.05
2022-08-18T10:11:00.548Z,63.45
2022-08-18T10:13:39.176Z,65.75
2022-08-18T10:16:18.368Z,66.63
2022-08-18T10:19:33.958Z,59.97
2022-08-18T10:22:09.943Z,59.88
2022-08-18T10:24:40.044Z,59.70
2022-08-18T10:27:14.819Z,56.97
2022-08-18T10:29:52.460Z,56.03
2022-08-18T10:32:25.184Z,57.00
2022-08-18T10:34:54.086Z,58.15
2022-08-18T10:37:25.923Z,49.22
2022-08-18T10:40:01.430Z,48.00
2022-08-18T10:42:38.386Z,48.83
2022-08-18T10:45:24.823Z,58.08
2022-08-18T10:48:16.663Z,46.92
2022-08-18T10:50:53.541Z,51.60
2022-08-18T10:53:48.193Z,54.65
2022-08-18T10:56:43.822Z,45.17
2022-08-18T10:59:28.728Z,54.80
2022-08-18T11:02:25.421Z,46.92
2022-08-18T11:04:59.421Z,45.03
2022-08-18T11:07:33.981Z,42.20
2022-08-18T11:10:29.124Z,43.97
2022-08-18T11:13:07.532Z,40.83
2022-08-18T11:16:10.370Z,45.25
2022-08-18T11:18:45.210Z,39.03
2022-08-18T11:21:25.966Z,36.80
2022-08-18T11:24:14.369Z,32.78
2022-08-18T11:26:45.322Z,34.53
2022-08-18T11:29:27.670Z,35.85
2022-08-18T11:32:06.358Z,29.85
2022-08-18T11:37:51.655Z,33.97
2022-08-18T11:43:26.607Z,35.15
2022-08-18T11:46:02.438Z,35.80
2022-08-18T11:48:35.966Z,32.53
2022-08-18T11:51:17.782Z,35.87
2022-08-18T11:54:05.191Z,34.78
2022-08-18T11:56:37.888Z,33.28
2022-08-18T11:59:25.790Z,35.53
2022-08-18T12:02:20.540Z,31.83
2022-08-18T12:04:53.438Z,31.85
2022-08-18T12:07:34.375Z,33.67
2022-08-18T12:10:26.041Z,29.55
2022-08-18T12:12:59.083Z,29.52
2022-08-18T12:15:44.188Z,29.50
2022-08-18T12:18:19.010Z,27.75
2022-08-18T12:20:55.914Z,27.35
2022-08-18T12:23:24.631Z,26.77
2022-08-18T12:25:52.063Z,23.45
2022-08-18T12:28:22.486Z,21.13
2022-08-18T12:33:48.133Z,24.23
2022-08-18T12:39:13.752Z,23.92
2022-08-18T12:41:40.959Z,24.25
2022-08-18T12:44:13.251Z,23.98
2022-08-18T12:46:42.814Z,19.50
2022-08-18T12:49:17.122Z,24.80
2022-08-18T12:51:45.206Z,24.67
2022-08-18T12:54:20.099Z,20.80
2022-08-18T12:56:51.123Z,21.88
2022-08-18T12:59:19.098Z,21.55
2022-08-18T13:01:46.943Z,20.20
2022-08-18T13:04:18.706Z,25.27
2022-08-18T13:07:00.228Z,22.83
2022-08-18T13:09:47.514Z,23.52
2022-08-18T13:12:20.510Z,23.60
2022-08-18T13:14:48.155Z,25.27
2022-08-18T13:17:32.462Z,22.20
2022-08-18T13:20:09.561Z,22.02
2022-08-18T13:22:40.398Z,27.13
2022-08-18T13:25:11.445Z,22.50
2022-08-18T13:27:45.115Z,21.17
2022-08-18T13:30:31.172Z,20.15
2022-08-18T13:33:05.237Z,22.70
2022-08-18T13:35:38.054Z,20.48
2022-08-18T13:38:14.543Z,20.92
2022-08-18T13:40:48.735Z,21.17
2022-08-18T13:43:18.577Z,22.95
2022-08-18T13:45:52.984Z,22.92
2022-08-18T13:48:20.797Z,21.30
2022-08-18T13:50:52.737Z,22.63
2022-08-18T13:53:21.393Z,20.40
2022-08-18T13:55:49.303Z,19.10
2022-08-18T13:58:20.374Z,21.08
2022-08-18T14:00:51.915Z,19.13
2022-08-18T14:03:30.824Z,19.55
2022-08-18T14:06:07.846Z,19.67
2022-08-18T14:08:34.998Z,18.13
2022-08-18T14:11:03.370Z,17.65
2022-08-18T14:13:38.166Z,21.48
2022-08-18T14:16:10.592Z,19.05
2022-08-18T14:18:39.249Z,22.33
2022-08-18T14:21:25.043Z,21.02
2022-08-18T14:24:14.305Z,19.55
2022-08-18T14:26:50.094Z,21.65
2022-08-18T14:29:46.042Z,26.15
2022-08-18T14:32:07.355Z,24.90
2022-08-18T14:34:34.702Z,21.75
2022-08-18T14:37:03.450Z,22.88
2022-08-18T14:39:30.615Z,25.13
2022-08-18T14:41:58.677Z,20.90
2022-08-18T14:44:31.759Z,20.02
2022-08-18T14:46:59.741Z,23.90
2022-08-18T14:49:28.756Z,27.30
2022-08-18T14:51:57.408Z,24.33
2022-08-18T14:54:28.219Z,24.23
2022-08-18T14:56:56.202Z,22.80
2022-08-18T14:59:25.516Z,23.58
2022-08-18T15:01:53.540Z,20.50
2022-08-18T15:04:21.622Z,25.80
2022-08-18T15:06:55.693Z,18.05
2022-08-18T15:09:27.193Z,22.80
2022-08-18T15:11:56.348Z,19.88
2022-08-18T15:14:33.261Z,24.08
2022-08-18T15:17:03.187Z,19.05
2022-08-18T15:20:00.675Z,20.30
2022-08-18T15:22:45.423Z,18.63
2022-08-18T15:25:30.961Z,19.38
2022-08-18T15:27:59.551Z,18.92
2022-08-18T15:30:26.842Z,16.27
2022-08-18T15:32:54.581Z,15.55
2022-08-18T15:35:22.421Z,17.83
2022-08-18T15:37:51.147Z,15.98
2022-08-18T15:40:30.921Z,18.48
2022-08-18T15:43:09.854Z,13.20
2022-08-18T15:45:43.022Z,20.25
2022-08-18T15:48:12.481Z,17.73
2022-08-18T15:50:39.863Z,20.65
2022-08-18T15:53:11.951Z,16.92
2022-08-18T15:55:41.128Z,13.70
2022-08-18T15:58:12.328Z,14.75
2022-08-18T16:00:43.806Z,19.63
2022-08-18T16:03:15.655Z,14.63
2022-08-18T16:05:54.643Z,19.40
2022-08-18T16:08:25.020Z,16.67
2022-08-18T16:10:53.843Z,17.85
2022-08-18T16:13:22.192Z,16.73
2022-08-18T16:15:50.415Z,18.05
2022-08-18T16:18:21.098Z,18.67
2022-08-18T16:20:48.560Z,16.83
2022-08-18T16:23:20.036Z,18.08
2022-08-18T16:25:47.089Z,19.92
2022-08-18T16:28:14.166Z,17.77
2022-08-18T16:30:41.872Z,19.20
2022-08-18T16:33:08.944Z,20.13
2022-08-18T16:35:37.513Z,16.92
2022-08-18T16:38:08.904Z,18.90
2022-08-18T16:40:36.844Z,17.75
2022-08-18T16:43:05.460Z,18.52
2022-08-18T16:45:35.026Z,20.70
2022-08-18T16:48:03.008Z,15.20
2022-08-18T16:50:30.752Z,18.42
2022-08-18T16:52:58.660Z,16.02
2022-08-18T16:55:26.040Z,18.63
2022-08-18T16:58:15.433Z,18.98
2022-08-18T17:01:02.159Z,16.27
2022-08-18T17:04:04.846Z,20.50
2022-08-18T17:06:47.819Z,19.33
2022-08-18T17:09:15.539Z,16.35
2022-08-18T17:11:47.909Z,19.23
2022-08-18T17:14:19.863Z,20.10
2022-08-18T17:16:49.005Z,22.67
2022-08-18T17:19:16.056Z,19.13
2022-08-18T17:21:43.491Z,21.63
2022-08-18T17:24:11.370Z,22.20
2022-08-18T17:27:25.979Z,20.33
2022-08-18T17:29:58.527Z,20.83
2022-08-18T17:35:13.760Z,20.08
2022-08-18T17:37:53.217Z,19.88
2022-08-18T17:40:35.493Z,23.40
2022-08-18T17:43:02.535Z,19.17
2022-08-18T17:45:35.020Z,22.70
2022-08-18T17:48:16.696Z,20.55
2022-08-18T17:51:13.312Z,18.23
2022-08-18T17:53:40.584Z,19.42
2022-08-18T17:56:16.031Z,17.35
2022-08-18T17:58:56.696Z,16.95
2022-08-18T18:01:26.199Z,18.58
2022-08-18T18:03:54.072Z,19.67
2022-08-18T18:06:37.877Z,15.75
2022-08-18T18:09:06.817Z,17.05
2022-08-18T18:11:41.322Z,17.90
2022-08-18T18:14:28.183Z,17.35
2022-08-18T18:17:11.769Z,17.13
2022-08-18T18:19:47.098Z,17.77
2022-08-18T18:22:21.574Z,21.20
2022-08-18T18:24:56.166Z,16.25
2022-08-18T18:27:48.655Z,17.55
2022-08-18T18:30:19.295Z,15.82
2022-08-18T18:33:03.167Z,15.63
2022-08-18T18:35:34.060Z,14.45
2022-08-18T18:38:26.484Z,15.45
2022-08-18T18:41:22.238Z,13.35
2022-08-18T18:43:51.307Z,18.73
2022-08-18T18:46:53.233Z,14.07
2022-08-18T18:49:40.426Z,15.15
2022-08-18T18:52:13.305Z,15.30
2022-08-18T18:54:42.999Z,18.40
2022-08-18T18:57:35.257Z,13.63
2022-08-18T19:00:23.388Z,16.25
2022-08-18T19:03:07.326Z,15.80
2022-08-18T19:06:03.313Z,16.55
2022-08-18T19:08:41.642Z,17.10
2022-08-18T19:11:33.086Z,14.77
2022-08-18T19:14:14.888Z,16.70
2022-08-18T19:17:13.546Z,15.85
2022-08-18T19:20:04.820Z,15.38
2022-08-18T19:22:37.333Z,14.02
2022-08-18T19:25:19.287Z,14.07
2022-08-18T19:28:11.275Z,14.27
2022-08-18T19:30:42.740Z,15.60
2022-08-18T19:33:13.971Z,17.30
2022-08-18T19:35:58.789Z,18.83
2022-08-18T19:38:54.358Z,14.90
2022-08-18T19:41:46.133Z,14.15
2022-08-18T19:44:37.084Z,18.20
2022-08-18T19:47:29.593Z,13.82
2022-08-18T19:50:53.597Z,15.30
2022-08-18T19:53:39.540Z,18.38
2022-08-18T19:56:17.786Z,16.85
2022-08-18T19:59:21.469Z,16.65
2022-08-18T20:02:18.700Z,18.02
2022-08-18T20:05:11.238Z,13.68
2022-08-18T20:07:46.836Z,15.15
2022-08-18T20:10:34.926Z,14.65
2022-08-18T20:13:10.980Z,14.43
2022-08-18T20:16:02.764Z,13.23
2022-08-18T20:18:36.856Z,12.27
2022-08-18T20:23:56.929Z,12.88
2022-08-18T20:26:38.737Z,13.80
2022-08-18T20:29:15.625Z,12.57
2022-08-18T20:31:49.231Z,13.98
2022-08-18T20:34:22.802Z,13.65
2022-08-18T20:36:51.798Z,14.52
2022-08-18T20:39:51.655Z,11.93
2022-08-18T20:42:21.566Z,16.20
2022-08-18T20:44:48.594Z,13.50
2022-08-18T20:47:24.260Z,11.57
2022-08-18T20:50:13.059Z,12.50
2022-08-18T20:52:50.300Z,17.15
2022-08-18T20:55:20.369Z,13.70
2022-08-18T20:57:47.549Z,13.32
2022-08-18T21:00:27.473Z,14.43
2022-08-18T21:02:58.087Z,12.38
2022-08-18T21:05:35.464Z,12.50
2022-08-18T21:08:19.850Z,14.43
2022-08-18T21:13:42.683Z,14.38
2022-08-18T21:16:38.115Z,12.35
2022-08-18T21:19:25.268Z,11.70
2022-08-18T21:22:04.377Z,12.50
2022-08-18T21:24:35.861Z,13.73
2022-08-18T21:27:24.549Z,12.82
2022-08-18T21:29:53.006Z,15.32
2022-08-18T21:32:35.393Z,13.90
2022-08-18T21:35:17.943Z,15.93
2022-08-18T21:38:08.950Z,15.40
2022-08-18T21:40:49.599Z,14.50
2022-08-18T21:43:43.621Z,14.18
2022-08-18T21:46:24.897Z,16.88
2022-08-18T21:48:55.121Z,13.75
2022-08-18T21:51:31.186Z,17.25
2022-08-18T21:54:01.376Z,15.82
2022-08-18T21:56:32.042Z,19.98
2022-08-18T21:59:12.063Z,14.65
2022-08-18T22:01:49.645Z,17.52
2022-08-18T22:04:21.931Z,18.48
2022-08-18T22:06:59.170Z,18.35
2022-08-18T22:09:47.896Z,16.92
2022-08-18T22:12:41.077Z,16.85
2022-08-18T22:15:22.032Z,17.17
2022-08-18T22:17:54.500Z,16.63
2022-08-18T22:20:33.899Z,22.33
2022-08-18T22:23:44.399Z,17.98
2022-08-18T22:26:29.884Z,19.55
2022-08-18T22:29:06.151Z,21.42
2022-08-18T22:31:36.298Z,20.75
2022-08-18T22:34:07.426Z,21.55
2022-08-18T22:36:52.719Z,22.17
2022-08-18T22:39:39.802Z,19.80
2022-08-18T22:42:07.931Z,21.02
2022-08-18T22:44:35.067Z,21.95
2022-08-18T22:47:03.586Z,17.85
2022-08-18T22:49:30.914Z,19.48
2022-08-18T22:51:58.290Z,21.73
2022-08-18T22:54:25.760Z,21.35
2022-08-18T22:56:53.925Z,18.33
2022-08-18T22:59:25.644Z,19.75
2022-08-18T23:01:55.207Z,19.42
2022-08-18T23:04:23.304Z,15.93
2022-08-18T23:06:53.765Z,17.52
2022-08-18T23:09:26.744Z,16.35
2022-08-18T23:11:57.048Z,19.50
2022-08-18T23:14:25.322Z,19.27
2022-08-18T23:16:52.542Z,17.05
2022-08-18T23:19:21.034Z,19.27
2022-08-18T23:21:48.790Z,19.05
2022-08-18T23:24:16.850Z,20.75
2022-08-18T23:26:44.033Z,18.25
2022-08-18T23:29:14.698Z,21.70
2022-08-18T23:31:50.016Z,20.50
2022-08-18T23:34:19.523Z,23.95
2022-08-18T23:36:56.036Z,21.27
2022-08-18T23:39:27.795Z,23.48
2022-08-18T23:41:55.249Z,23.80
2022-08-18T23:44:27.694Z,26.85
2022-08-18T23:47:00.081Z,26.23
2022-08-18T23:49:30.375Z,23.63
2022-08-18T23:51:58.816Z,23.27
2022-08-18T23:54:33.260Z,23.75
2022-08-18T23:57:00.848Z,25.35
2022-08-18T23:59:28.765Z,20.77
